sensor_id;sensor_type;location;lat;lon;timestamp;P1;durP1;ratioP1;P2;durP2;ratioP2
74465;SDS011;62916;50.044;15.938;2023-07-02T00:02:28;3.00;;;2.50;;
74465;SDS011;62916;50.044;15.938;2023-07-02T00:04:59;3.30;;;3.00;;
74465;SDS011;62916;50.044;15.938;2023-07-02T00:07:30;3.10;;;2.20;;
74465;SDS011;62916;50.044;15.938;2023-07-02T00:10:02;2.60;;;2.20;;
74465;SDS011;62916;50.044;15.938;2023-07-02T00:12:34;2.60;;;2.40;;
74465;SDS011;62916;50.044;15.938;2023-07-02T00:15:06;2.90;;;2.40;;
74465;SDS011;62916;50.044;15.938;2023-07-02T00:17:37;2.60;;;2.20;;
74465;SDS011;62916;50.044;15.938;2023-07-02T00:20:09;2.50;;;2.00;;
74465;SDS011;62916;50.044;15.938;2023-07-02T00:22:45;2.60;;;2.20;;
74465;SDS011;62916;50.044;15.938;2023-07-02T00:25:15;2.80;;;2.20;;
74465;SDS011;62916;50.044;15.938;2023-07-02T00:27:46;2.40;;;2.10;;
74465;SDS011;62916;50.044;15.938;2023-07-02T00:30:17;2.50;;;2.30;;
74465;SDS011;62916;50.044;15.938;2023-07-02T00:32:48;3.30;;;2.40;;
74465;SDS011;62916;50.044;15.938;2023-07-02T00:35:19;2.40;;;2.20;;
74465;SDS011;62916;50.044;15.938;2023-07-02T00:37:50;2.80;;;2.10;;
74465;SDS011;62916;50.044;15.938;2023-07-02T00:40:21;2.90;;;2.70;;
74465;SDS011;62916;50.044;15.938;2023-07-02T00:42:51;2.40;;;2.10;;
74465;SDS011;62916;50.044;15.938;2023-07-02T00:45:24;2.80;;;2.50;;
74465;SDS011;62916;50.044;15.938;2023-07-02T00:47:55;2.80;;;2.50;;
74465;SDS011;62916;50.044;15.938;2023-07-02T00:50:26;2.60;;;2.30;;
74465;SDS011;62916;50.044;15.938;2023-07-02T00:52:57;2.80;;;2.10;;
74465;SDS011;62916;50.044;15.938;2023-07-02T00:55:28;3.50;;;2.80;;
74465;SDS011;62916;50.044;15.938;2023-07-02T00:57:59;3.20;;;2.20;;
74465;SDS011;62916;50.044;15.938;2023-07-02T01:00:31;2.40;;;2.20;;
74465;SDS011;62916;50.044;15.938;2023-07-02T01:03:02;3.90;;;2.80;;
74465;SDS011;62916;50.044;15.938;2023-07-02T01:05:32;3.80;;;2.20;;
74465;SDS011;62916;50.044;15.938;2023-07-02T01:08:04;2.50;;;2.20;;
74465;SDS011;62916;50.044;15.938;2023-07-02T01:10:36;3.20;;;2.70;;
74465;SDS011;62916;50.044;15.938;2023-07-02T01:13:07;3.00;;;2.50;;
74465;SDS011;62916;50.044;15.938;2023-07-02T01:15:41;2.60;;;2.00;;
74465;SDS011;62916;50.044;15.938;2023-07-02T01:18:14;2.90;;;2.60;;
74465;SDS011;62916;50.044;15.938;2023-07-02T01:20:45;2.70;;;2.40;;
74465;SDS011;62916;50.044;15.938;2023-07-02T01:23:17;4.50;;;2.10;;
74465;SDS011;62916;50.044;15.938;2023-07-02T01:25:47;3.00;;;2.30;;
74465;SDS011;62916;50.044;15.938;2023-07-02T01:28:22;3.90;;;2.40;;
74465;SDS011;62916;50.044;15.938;2023-07-02T01:30:52;2.50;;;2.30;;
74465;SDS011;62916;50.044;15.938;2023-07-02T01:33:23;2.70;;;2.20;;
74465;SDS011;62916;50.044;15.938;2023-07-02T01:35:54;2.50;;;2.20;;
74465;SDS011;62916;50.044;15.938;2023-07-02T01:38:25;3.30;;;2.40;;
74465;SDS011;62916;50.044;15.938;2023-07-02T01:40:56;2.90;;;2.30;;
74465;SDS011;62916;50.044;15.938;2023-07-02T01:43:26;2.20;;;2.00;;
74465;SDS011;62916;50.044;15.938;2023-07-02T01:45:58;2.70;;;2.40;;
74465;SDS011;62916;50.044;15.938;2023-07-02T01:48:29;2.80;;;2.20;;
74465;SDS011;62916;50.044;15.938;2023-07-02T01:51:00;3.10;;;2.00;;
74465;SDS011;62916;50.044;15.938;2023-07-02T01:53:33;2.70;;;2.10;;
74465;SDS011;62916;50.044;15.938;2023-07-02T01:56:04;2.90;;;2.00;;
74465;SDS011;62916;50.044;15.938;2023-07-02T01:58:35;2.60;;;2.40;;
74465;SDS011;62916;50.044;15.938;2023-07-02T02:01:06;3.40;;;2.40;;
74465;SDS011;62916;50.044;15.938;2023-07-02T02:03:37;3.70;;;2.30;;
74465;SDS011;62916;50.044;15.938;2023-07-02T02:06:08;2.80;;;2.40;;
74465;SDS011;62916;50.044;15.938;2023-07-02T02:08:38;3.50;;;2.30;;
74465;SDS011;62916;50.044;15.938;2023-07-02T02:11:09;3.10;;;2.40;;
74465;SDS011;62916;50.044;15.938;2023-07-02T02:13:40;2.10;;;1.90;;
74465;SDS011;62916;50.044;15.938;2023-07-02T02:16:11;2.80;;;2.30;;
74465;SDS011;62916;50.044;15.938;2023-07-02T02:18:42;2.80;;;2.60;;
74465;SDS011;62916;50.044;15.938;2023-07-02T02:21:12;2.40;;;2.10;;
74465;SDS011;62916;50.044;15.938;2023-07-02T02:23:44;2.30;;;2.10;;
74465;SDS011;62916;50.044;15.938;2023-07-02T02:26:15;2.80;;;2.50;;
74465;SDS011;62916;50.044;15.938;2023-07-02T02:28:50;3.30;;;2.30;;
74465;SDS011;62916;50.044;15.938;2023-07-02T02:31:21;2.50;;;2.00;;
74465;SDS011;62916;50.044;15.938;2023-07-02T02:33:52;2.10;;;1.90;;
74465;SDS011;62916;50.044;15.938;2023-07-02T02:36:23;2.20;;;2.00;;
74465;SDS011;62916;50.044;15.938;2023-07-02T02:38:54;2.80;;;2.00;;
74465;SDS011;62916;50.044;15.938;2023-07-02T02:41:24;2.70;;;1.90;;
74465;SDS011;62916;50.044;15.938;2023-07-02T02:43:55;2.40;;;2.00;;
74465;SDS011;62916;50.044;15.938;2023-07-02T02:46:26;2.40;;;2.20;;
74465;SDS011;62916;50.044;15.938;2023-07-02T02:48:57;2.00;;;1.80;;
74465;SDS011;62916;50.044;15.938;2023-07-02T02:51:27;2.50;;;2.30;;
74465;SDS011;62916;50.044;15.938;2023-07-02T02:53:58;2.50;;;2.30;;
74465;SDS011;62916;50.044;15.938;2023-07-02T02:56:29;2.40;;;2.20;;
74465;SDS011;62916;50.044;15.938;2023-07-02T02:59:00;2.30;;;2.10;;
74465;SDS011;62916;50.044;15.938;2023-07-02T03:01:33;2.30;;;2.10;;
74465;SDS011;62916;50.044;15.938;2023-07-02T03:04:04;2.60;;;2.30;;
74465;SDS011;62916;50.044;15.938;2023-07-02T03:06:36;2.50;;;2.30;;
74465;SDS011;62916;50.044;15.938;2023-07-02T03:09:08;2.20;;;2.00;;
74465;SDS011;62916;50.044;15.938;2023-07-02T03:11:39;2.50;;;2.10;;
74465;SDS011;62916;50.044;15.938;2023-07-02T03:14:10;2.30;;;2.10;;
74465;SDS011;62916;50.044;15.938;2023-07-02T03:16:41;2.40;;;2.20;;
74465;SDS011;62916;50.044;15.938;2023-07-02T03:19:15;2.00;;;1.80;;
74465;SDS011;62916;50.044;15.938;2023-07-02T03:21:46;2.70;;;2.40;;
74465;SDS011;62916;50.044;15.938;2023-07-02T03:24:16;2.20;;;1.90;;
74465;SDS011;62916;50.044;15.938;2023-07-02T03:26:47;2.40;;;2.10;;
74465;SDS011;62916;50.044;15.938;2023-07-02T03:29:18;2.10;;;1.90;;
74465;SDS011;62916;50.044;15.938;2023-07-02T03:31:49;2.90;;;1.90;;
74465;SDS011;62916;50.044;15.938;2023-07-02T03:34:20;2.40;;;2.00;;
74465;SDS011;62916;50.044;15.938;2023-07-02T03:36:51;2.80;;;1.90;;
74465;SDS011;62916;50.044;15.938;2023-07-02T03:39:22;2.30;;;2.00;;
74465;SDS011;62916;50.044;15.938;2023-07-02T03:41:53;2.10;;;1.90;;
74465;SDS011;62916;50.044;15.938;2023-07-02T03:44:24;3.50;;;2.00;;
74465;SDS011;62916;50.044;15.938;2023-07-02T03:46:55;1.90;;;1.80;;
74465;SDS011;62916;50.044;15.938;2023-07-02T03:49:26;1.70;;;1.60;;
74465;SDS011;62916;50.044;15.938;2023-07-02T03:51:57;2.10;;;1.60;;
74465;SDS011;62916;50.044;15.938;2023-07-02T03:54:27;2.70;;;2.50;;
74465;SDS011;62916;50.044;15.938;2023-07-02T03:56:58;1.70;;;1.60;;
74465;SDS011;62916;50.044;15.938;2023-07-02T03:59:29;3.30;;;2.00;;
74465;SDS011;62916;50.044;15.938;2023-07-02T04:02:00;1.90;;;1.70;;
74465;SDS011;62916;50.044;15.938;2023-07-02T04:04:31;1.50;;;1.40;;
74465;SDS011;62916;50.044;15.938;2023-07-02T04:07:02;2.00;;;1.60;;
74465;SDS011;62916;50.044;15.938;2023-07-02T04:09:34;2.30;;;2.10;;
74465;SDS011;62916;50.044;15.938;2023-07-02T04:12:06;1.90;;;1.70;;
74465;SDS011;62916;50.044;15.938;2023-07-02T04:14:38;2.10;;;1.70;;
74465;SDS011;62916;50.044;15.938;2023-07-02T04:17:09;2.00;;;1.50;;
74465;SDS011;62916;50.044;15.938;2023-07-02T04:19:39;1.50;;;1.40;;
74465;SDS011;62916;50.044;15.938;2023-07-02T04:22:10;1.90;;;1.50;;
74465;SDS011;62916;50.044;15.938;2023-07-02T04:24:41;1.60;;;1.50;;
74465;SDS011;62916;50.044;15.938;2023-07-02T04:27:15;2.30;;;1.80;;
74465;SDS011;62916;50.044;15.938;2023-07-02T04:30:07;2.60;;;2.00;;
74465;SDS011;62916;50.044;15.938;2023-07-02T04:32:39;2.10;;;1.60;;
74465;SDS011;62916;50.044;15.938;2023-07-02T04:35:10;1.70;;;1.60;;
74465;SDS011;62916;50.044;15.938;2023-07-02T04:37:41;1.70;;;1.40;;
74465;SDS011;62916;50.044;15.938;2023-07-02T04:40:12;1.60;;;1.50;;
74465;SDS011;62916;50.044;15.938;2023-07-02T04:42:43;2.10;;;1.90;;
74465;SDS011;62916;50.044;15.938;2023-07-02T04:45:15;3.90;;;1.80;;
74465;SDS011;62916;50.044;15.938;2023-07-02T04:47:46;1.40;;;1.20;;
74465;SDS011;62916;50.044;15.938;2023-07-02T04:50:17;1.70;;;1.60;;
74465;SDS011;62916;50.044;15.938;2023-07-02T04:52:48;3.00;;;1.50;;
74465;SDS011;62916;50.044;15.938;2023-07-02T04:55:19;1.70;;;1.20;;
74465;SDS011;62916;50.044;15.938;2023-07-02T04:57:50;1.60;;;1.50;;
74465;SDS011;62916;50.044;15.938;2023-07-02T05:00:21;1.50;;;1.30;;
74465;SDS011;62916;50.044;15.938;2023-07-02T05:02:52;1.80;;;1.40;;
74465;SDS011;62916;50.044;15.938;2023-07-02T05:05:24;1.70;;;1.50;;
74465;SDS011;62916;50.044;15.938;2023-07-02T05:07:54;1.30;;;1.20;;
74465;SDS011;62916;50.044;15.938;2023-07-02T05:10:26;1.60;;;1.50;;
74465;SDS011;62916;50.044;15.938;2023-07-02T05:12:56;1.40;;;1.30;;
74465;SDS011;62916;50.044;15.938;2023-07-02T05:15:27;1.20;;;1.10;;
74465;SDS011;62916;50.044;15.938;2023-07-02T05:17:58;2.00;;;1.30;;
74465;SDS011;62916;50.044;15.938;2023-07-02T05:20:29;1.60;;;1.50;;
74465;SDS011;62916;50.044;15.938;2023-07-02T05:23:00;1.40;;;1.20;;
74465;SDS011;62916;50.044;15.938;2023-07-02T05:25:31;1.40;;;1.30;;
74465;SDS011;62916;50.044;15.938;2023-07-02T05:28:02;2.20;;;1.40;;
74465;SDS011;62916;50.044;15.938;2023-07-02T05:30:34;1.30;;;1.20;;
74465;SDS011;62916;50.044;15.938;2023-07-02T05:33:06;1.60;;;1.40;;
74465;SDS011;62916;50.044;15.938;2023-07-02T05:35:36;1.40;;;1.30;;
74465;SDS011;62916;50.044;15.938;2023-07-02T05:38:07;1.40;;;1.30;;
74465;SDS011;62916;50.044;15.938;2023-07-02T05:40:38;1.50;;;1.20;;
74465;SDS011;62916;50.044;15.938;2023-07-02T05:43:09;1.60;;;1.50;;
74465;SDS011;62916;50.044;15.938;2023-07-02T05:45:40;1.00;;;0.90;;
74465;SDS011;62916;50.044;15.938;2023-07-02T05:48:11;2.50;;;1.40;;
74465;SDS011;62916;50.044;15.938;2023-07-02T05:50:41;1.40;;;1.30;;
74465;SDS011;62916;50.044;15.938;2023-07-02T05:53:13;1.30;;;1.20;;
74465;SDS011;62916;50.044;15.938;2023-07-02T05:55:44;2.30;;;1.70;;
74465;SDS011;62916;50.044;15.938;2023-07-02T05:58:16;1.40;;;1.30;;
74465;SDS011;62916;50.044;15.938;2023-07-02T06:00:47;1.20;;;1.10;;
74465;SDS011;62916;50.044;15.938;2023-07-02T06:03:18;2.00;;;1.20;;
74465;SDS011;62916;50.044;15.938;2023-07-02T06:05:49;1.50;;;1.10;;
74465;SDS011;62916;50.044;15.938;2023-07-02T06:08:21;1.30;;;1.20;;
74465;SDS011;62916;50.044;15.938;2023-07-02T06:10:52;1.30;;;1.10;;
74465;SDS011;62916;50.044;15.938;2023-07-02T06:13:23;2.60;;;1.20;;
74465;SDS011;62916;50.044;15.938;2023-07-02T06:15:54;1.10;;;1.00;;
74465;SDS011;62916;50.044;15.938;2023-07-02T06:18:25;2.00;;;1.10;;
74465;SDS011;62916;50.044;15.938;2023-07-02T06:20:57;1.60;;;1.50;;
74465;SDS011;62916;50.044;15.938;2023-07-02T06:23:29;1.60;;;1.10;;
74465;SDS011;62916;50.044;15.938;2023-07-02T06:26:08;1.60;;;1.30;;
74465;SDS011;62916;50.044;15.938;2023-07-02T06:28:39;1.20;;;1.10;;
74465;SDS011;62916;50.044;15.938;2023-07-02T06:31:10;1.30;;;1.10;;
74465;SDS011;62916;50.044;15.938;2023-07-02T06:33:41;1.20;;;1.10;;
74465;SDS011;62916;50.044;15.938;2023-07-02T06:36:12;1.20;;;1.10;;
74465;SDS011;62916;50.044;15.938;2023-07-02T06:38:45;1.10;;;1.00;;
74465;SDS011;62916;50.044;15.938;2023-07-02T06:41:16;1.40;;;1.20;;
74465;SDS011;62916;50.044;15.938;2023-07-02T06:43:47;2.70;;;1.10;;
74465;SDS011;62916;50.044;15.938;2023-07-02T06:46:18;1.10;;;0.90;;
74465;SDS011;62916;50.044;15.938;2023-07-02T06:48:49;1.20;;;1.10;;
74465;SDS011;62916;50.044;15.938;2023-07-02T06:51:20;6.30;;;1.60;;
74465;SDS011;62916;50.044;15.938;2023-07-02T06:53:53;1.70;;;1.00;;
74465;SDS011;62916;50.044;15.938;2023-07-02T06:56:24;1.80;;;1.20;;
74465;SDS011;62916;50.044;15.938;2023-07-02T06:58:55;1.50;;;1.40;;
74465;SDS011;62916;50.044;15.938;2023-07-02T07:01:26;1.50;;;0.90;;
74465;SDS011;62916;50.044;15.938;2023-07-02T07:03:57;2.10;;;1.20;;
74465;SDS011;62916;50.044;15.938;2023-07-02T07:06:28;1.30;;;1.10;;
74465;SDS011;62916;50.044;15.938;2023-07-02T07:09:00;1.80;;;1.70;;
74465;SDS011;62916;50.044;15.938;2023-07-02T07:11:31;1.40;;;1.30;;
74465;SDS011;62916;50.044;15.938;2023-07-02T07:14:03;1.80;;;1.40;;
74465;SDS011;62916;50.044;15.938;2023-07-02T07:16:34;5.30;;;2.10;;
74465;SDS011;62916;50.044;15.938;2023-07-02T07:19:05;2.90;;;2.10;;
74465;SDS011;62916;50.044;15.938;2023-07-02T07:21:36;2.70;;;1.70;;
74465;SDS011;62916;50.044;15.938;2023-07-02T07:24:08;2.40;;;2.00;;
74465;SDS011;62916;50.044;15.938;2023-07-02T07:26:39;2.90;;;2.10;;
74465;SDS011;62916;50.044;15.938;2023-07-02T07:29:10;5.50;;;2.20;;
74465;SDS011;62916;50.044;15.938;2023-07-02T07:31:41;2.60;;;2.10;;
74465;SDS011;62916;50.044;15.938;2023-07-02T07:34:14;2.70;;;2.20;;
74465;SDS011;62916;50.044;15.938;2023-07-02T07:36:45;2.80;;;2.30;;
74465;SDS011;62916;50.044;15.938;2023-07-02T07:39:16;3.30;;;2.00;;
74465;SDS011;62916;50.044;15.938;2023-07-02T07:41:47;2.50;;;1.90;;
74465;SDS011;62916;50.044;15.938;2023-07-02T07:44:18;2.80;;;1.70;;
74465;SDS011;62916;50.044;15.938;2023-07-02T07:46:50;2.30;;;2.00;;
74465;SDS011;62916;50.044;15.938;2023-07-02T07:49:21;1.50;;;1.40;;
74465;SDS011;62916;50.044;15.938;2023-07-02T07:51:52;2.20;;;2.00;;
74465;SDS011;62916;50.044;15.938;2023-07-02T07:54:23;1.60;;;1.40;;
74465;SDS011;62916;50.044;15.938;2023-07-02T07:56:55;3.40;;;1.80;;
74465;SDS011;62916;50.044;15.938;2023-07-02T07:59:26;1.70;;;1.60;;
74465;SDS011;62916;50.044;15.938;2023-07-02T08:01:57;2.10;;;1.90;;
74465;SDS011;62916;50.044;15.938;2023-07-02T08:04:29;2.00;;;1.60;;
74465;SDS011;62916;50.044;15.938;2023-07-02T08:07:02;2.80;;;1.70;;
74465;SDS011;62916;50.044;15.938;2023-07-02T08:09:36;2.00;;;1.40;;
74465;SDS011;62916;50.044;15.938;2023-07-02T08:12:10;2.20;;;1.70;;
74465;SDS011;62916;50.044;15.938;2023-07-02T08:14:41;1.70;;;1.30;;
74465;SDS011;62916;50.044;15.938;2023-07-02T08:17:12;2.00;;;1.50;;
74465;SDS011;62916;50.044;15.938;2023-07-02T08:19:43;1.90;;;1.60;;
74465;SDS011;62916;50.044;15.938;2023-07-02T08:22:14;1.70;;;1.60;;
74465;SDS011;62916;50.044;15.938;2023-07-02T08:24:45;1.80;;;1.50;;
74465;SDS011;62916;50.044;15.938;2023-07-02T08:27:17;1.80;;;1.60;;
74465;SDS011;62916;50.044;15.938;2023-07-02T08:29:48;1.40;;;1.30;;
74465;SDS011;62916;50.044;15.938;2023-07-02T08:32:19;2.00;;;1.80;;
74465;SDS011;62916;50.044;15.938;2023-07-02T08:34:50;1.90;;;1.50;;
74465;SDS011;62916;50.044;15.938;2023-07-02T08:37:21;2.60;;;1.60;;
74465;SDS011;62916;50.044;15.938;2023-07-02T08:39:52;2.20;;;1.60;;
74465;SDS011;62916;50.044;15.938;2023-07-02T08:42:23;1.70;;;1.60;;
74465;SDS011;62916;50.044;15.938;2023-07-02T08:44:57;3.10;;;1.40;;
74465;SDS011;62916;50.044;15.938;2023-07-02T08:47:30;2.50;;;2.30;;
74465;SDS011;62916;50.044;15.938;2023-07-02T08:50:01;1.60;;;1.50;;
74465;SDS011;62916;50.044;15.938;2023-07-02T08:52:33;1.60;;;1.50;;
74465;SDS011;62916;50.044;15.938;2023-07-02T08:55:05;2.80;;;1.50;;
74465;SDS011;62916;50.044;15.938;2023-07-02T08:57:37;1.50;;;1.40;;
74465;SDS011;62916;50.044;15.938;2023-07-02T09:00:11;1.80;;;1.70;;
74465;SDS011;62916;50.044;15.938;2023-07-02T09:02:43;3.10;;;1.70;;
74465;SDS011;62916;50.044;15.938;2023-07-02T09:05:15;2.90;;;1.80;;
74465;SDS011;62916;50.044;15.938;2023-07-02T09:07:46;2.30;;;1.70;;
74465;SDS011;62916;50.044;15.938;2023-07-02T09:10:28;3.60;;;1.60;;
74465;SDS011;62916;50.044;15.938;2023-07-02T09:13:06;3.40;;;1.80;;
74465;SDS011;62916;50.044;15.938;2023-07-02T09:15:38;2.00;;;1.40;;
74465;SDS011;62916;50.044;15.938;2023-07-02T09:18:16;1.90;;;1.30;;
74465;SDS011;62916;50.044;15.938;2023-07-02T09:20:51;1.70;;;1.50;;
74465;SDS011;62916;50.044;15.938;2023-07-02T09:23:31;2.50;;;1.70;;
74465;SDS011;62916;50.044;15.938;2023-07-02T09:26:04;4.40;;;1.90;;
74465;SDS011;62916;50.044;15.938;2023-07-02T09:28:35;2.30;;;1.60;;
74465;SDS011;62916;50.044;15.938;2023-07-02T09:31:06;2.40;;;1.90;;
74465;SDS011;62916;50.044;15.938;2023-07-02T09:33:37;3.10;;;1.70;;
74465;SDS011;62916;50.044;15.938;2023-07-02T09:36:08;2.20;;;1.40;;
74465;SDS011;62916;50.044;15.938;2023-07-02T09:38:40;1.50;;;1.40;;
74465;SDS011;62916;50.044;15.938;2023-07-02T09:41:11;1.50;;;1.40;;
74465;SDS011;62916;50.044;15.938;2023-07-02T09:43:42;2.10;;;1.60;;
74465;SDS011;62916;50.044;15.938;2023-07-02T09:46:13;1.50;;;1.40;;
74465;SDS011;62916;50.044;15.938;2023-07-02T09:48:44;1.80;;;1.60;;
74465;SDS011;62916;50.044;15.938;2023-07-02T09:51:15;2.70;;;2.10;;
74465;SDS011;62916;50.044;15.938;2023-07-02T09:53:47;2.40;;;1.50;;
74465;SDS011;62916;50.044;15.938;2023-07-02T09:56:18;3.40;;;1.80;;
74465;SDS011;62916;50.044;15.938;2023-07-02T09:58:49;2.30;;;1.70;;
74465;SDS011;62916;50.044;15.938;2023-07-02T10:01:20;2.30;;;1.50;;
74465;SDS011;62916;50.044;15.938;2023-07-02T10:03:52;1.90;;;1.70;;
74465;SDS011;62916;50.044;15.938;2023-07-02T10:06:23;2.40;;;2.10;;
74465;SDS011;62916;50.044;15.938;2023-07-02T10:08:54;1.70;;;1.50;;
74465;SDS011;62916;50.044;15.938;2023-07-02T10:11:33;2.20;;;1.70;;
74465;SDS011;62916;50.044;15.938;2023-07-02T10:14:04;2.10;;;1.80;;
74465;SDS011;62916;50.044;15.938;2023-07-02T10:16:47;2.00;;;1.80;;
74465;SDS011;62916;50.044;15.938;2023-07-02T10:19:20;1.60;;;1.50;;
74465;SDS011;62916;50.044;15.938;2023-07-02T10:22:01;2.00;;;1.80;;
74465;SDS011;62916;50.044;15.938;2023-07-02T10:24:35;1.60;;;1.50;;
74465;SDS011;62916;50.044;15.938;2023-07-02T10:27:07;3.90;;;1.80;;
74465;SDS011;62916;50.044;15.938;2023-07-02T10:29:38;1.90;;;1.80;;
74465;SDS011;62916;50.044;15.938;2023-07-02T10:32:29;2.50;;;2.00;;
74465;SDS011;62916;50.044;15.938;2023-07-02T10:35:12;3.20;;;1.60;;
74465;SDS011;62916;50.044;15.938;2023-07-02T10:37:44;1.50;;;1.40;;
74465;SDS011;62916;50.044;15.938;2023-07-02T10:40:15;1.60;;;1.50;;
74465;SDS011;62916;50.044;15.938;2023-07-02T10:42:48;3.20;;;1.80;;
74465;SDS011;62916;50.044;15.938;2023-07-02T10:45:30;2.70;;;1.80;;
74465;SDS011;62916;50.044;15.938;2023-07-02T10:48:07;2.60;;;1.70;;
74465;SDS011;62916;50.044;15.938;2023-07-02T10:50:39;3.10;;;1.90;;
74465;SDS011;62916;50.044;15.938;2023-07-02T10:53:15;3.20;;;1.50;;
74465;SDS011;62916;50.044;15.938;2023-07-02T10:55:53;3.00;;;2.10;;
74465;SDS011;62916;50.044;15.938;2023-07-02T10:58:26;1.70;;;1.50;;
74465;SDS011;62916;50.044;15.938;2023-07-02T11:00:57;3.20;;;1.60;;
74465;SDS011;62916;50.044;15.938;2023-07-02T11:03:30;2.00;;;1.60;;
74465;SDS011;62916;50.044;15.938;2023-07-02T11:06:01;2.20;;;1.60;;
74465;SDS011;62916;50.044;15.938;2023-07-02T11:08:36;2.00;;;1.80;;
74465;SDS011;62916;50.044;15.938;2023-07-02T11:11:08;2.20;;;1.80;;
74465;SDS011;62916;50.044;15.938;2023-07-02T11:13:45;2.20;;;1.70;;
74465;SDS011;62916;50.044;15.938;2023-07-02T11:16:22;1.90;;;1.70;;
74465;SDS011;62916;50.044;15.938;2023-07-02T11:19:05;1.70;;;1.60;;
74465;SDS011;62916;50.044;15.938;2023-07-02T11:21:38;1.80;;;1.70;;
74465;SDS011;62916;50.044;15.938;2023-07-02T11:24:26;1.60;;;1.50;;
74465;SDS011;62916;50.044;15.938;2023-07-02T11:26:58;3.00;;;1.90;;
74465;SDS011;62916;50.044;15.938;2023-07-02T11:29:30;1.90;;;1.70;;
74465;SDS011;62916;50.044;15.938;2023-07-02T11:32:09;2.00;;;1.60;;
74465;SDS011;62916;50.044;15.938;2023-07-02T11:37:11;2.80;;;1.90;;
74465;SDS011;62916;50.044;15.938;2023-07-02T11:39:44;1.80;;;1.70;;
74465;SDS011;62916;50.044;15.938;2023-07-02T11:42:15;2.20;;;1.80;;
74465;SDS011;62916;50.044;15.938;2023-07-02T11:44:46;1.90;;;1.70;;
74465;SDS011;62916;50.044;15.938;2023-07-02T11:47:17;1.90;;;1.80;;
74465;SDS011;62916;50.044;15.938;2023-07-02T11:49:48;2.30;;;2.10;;
74465;SDS011;62916;50.044;15.938;2023-07-02T11:52:19;1.90;;;1.80;;
74465;SDS011;62916;50.044;15.938;2023-07-02T11:54:50;1.70;;;1.60;;
74465;SDS011;62916;50.044;15.938;2023-07-02T11:57:21;1.60;;;1.50;;
74465;SDS011;62916;50.044;15.938;2023-07-02T11:59:52;1.60;;;1.50;;
74465;SDS011;62916;50.044;15.938;2023-07-02T12:02:24;2.20;;;1.60;;
74465;SDS011;62916;50.044;15.938;2023-07-02T12:04:55;2.50;;;1.80;;
74465;SDS011;62916;50.044;15.938;2023-07-02T12:07:26;2.00;;;1.70;;
74465;SDS011;62916;50.044;15.938;2023-07-02T12:09:57;1.80;;;1.70;;
74465;SDS011;62916;50.044;15.938;2023-07-02T12:12:28;2.30;;;2.10;;
74465;SDS011;62916;50.044;15.938;2023-07-02T12:14:59;1.40;;;1.30;;
74465;SDS011;62916;50.044;15.938;2023-07-02T12:17:30;2.00;;;1.70;;
74465;SDS011;62916;50.044;15.938;2023-07-02T12:20:01;7.40;;;2.10;;
74465;SDS011;62916;50.044;15.938;2023-07-02T12:22:33;2.00;;;1.90;;
74465;SDS011;62916;50.044;15.938;2023-07-02T12:25:05;2.00;;;1.90;;
74465;SDS011;62916;50.044;15.938;2023-07-02T12:27:37;1.90;;;1.80;;
74465;SDS011;62916;50.044;15.938;2023-07-02T12:30:09;3.20;;;1.90;;
74465;SDS011;62916;50.044;15.938;2023-07-02T12:32:40;2.30;;;2.10;;
74465;SDS011;62916;50.044;15.938;2023-07-02T12:35:11;2.30;;;2.10;;
74465;SDS011;62916;50.044;15.938;2023-07-02T12:37:45;3.10;;;2.10;;
74465;SDS011;62916;50.044;15.938;2023-07-02T12:40:19;2.20;;;2.00;;
74465;SDS011;62916;50.044;15.938;2023-07-02T12:42:50;2.90;;;2.30;;
74465;SDS011;62916;50.044;15.938;2023-07-02T12:45:21;2.60;;;1.90;;
74465;SDS011;62916;50.044;15.938;2023-07-02T12:47:52;2.30;;;2.10;;
74465;SDS011;62916;50.044;15.938;2023-07-02T12:50:23;2.40;;;2.10;;
74465;SDS011;62916;50.044;15.938;2023-07-02T12:52:54;4.60;;;2.40;;
74465;SDS011;62916;50.044;15.938;2023-07-02T12:55:25;2.60;;;2.40;;
74465;SDS011;62916;50.044;15.938;2023-07-02T12:57:56;2.30;;;2.10;;
74465;SDS011;62916;50.044;15.938;2023-07-02T13:00:27;2.80;;;2.20;;
74465;SDS011;62916;50.044;15.938;2023-07-02T13:02:59;2.40;;;2.00;;
74465;SDS011;62916;50.044;15.938;2023-07-02T13:05:32;2.10;;;1.90;;
74465;SDS011;62916;50.044;15.938;2023-07-02T13:08:04;2.30;;;2.10;;
74465;SDS011;62916;50.044;15.938;2023-07-02T13:10:36;2.20;;;1.60;;
74465;SDS011;62916;50.044;15.938;2023-07-02T13:13:09;2.70;;;2.00;;
74465;SDS011;62916;50.044;15.938;2023-07-02T13:15:50;2.00;;;1.90;;
74465;SDS011;62916;50.044;15.938;2023-07-02T13:18:22;2.50;;;1.80;;
74465;SDS011;62916;50.044;15.938;2023-07-02T13:20:53;2.40;;;2.10;;
74465;SDS011;62916;50.044;15.938;2023-07-02T13:23:24;2.30;;;1.90;;
74465;SDS011;62916;50.044;15.938;2023-07-02T13:25:55;4.00;;;2.60;;
74465;SDS011;62916;50.044;15.938;2023-07-02T13:28:26;4.30;;;2.40;;
74465;SDS011;62916;50.044;15.938;2023-07-02T13:30:57;2.70;;;2.00;;
74465;SDS011;62916;50.044;15.938;2023-07-02T13:33:30;3.30;;;2.10;;
74465;SDS011;62916;50.044;15.938;2023-07-02T13:36:01;2.80;;;2.20;;
74465;SDS011;62916;50.044;15.938;2023-07-02T13:38:32;2.70;;;2.30;;
74465;SDS011;62916;50.044;15.938;2023-07-02T13:41:04;2.70;;;2.20;;
74465;SDS011;62916;50.044;15.938;2023-07-02T13:43:35;3.40;;;2.60;;
74465;SDS011;62916;50.044;15.938;2023-07-02T13:46:06;2.70;;;2.30;;
74465;SDS011;62916;50.044;15.938;2023-07-02T13:48:38;3.60;;;2.10;;
74465;SDS011;62916;50.044;15.938;2023-07-02T13:51:09;2.90;;;2.60;;
74465;SDS011;62916;50.044;15.938;2023-07-02T13:53:40;2.40;;;2.20;;
74465;SDS011;62916;50.044;15.938;2023-07-02T13:56:11;3.10;;;2.50;;
74465;SDS011;62916;50.044;15.938;2023-07-02T13:58:57;2.80;;;2.50;;
74465;SDS011;62916;50.044;15.938;2023-07-02T14:01:30;2.70;;;2.50;;
74465;SDS011;62916;50.044;15.938;2023-07-02T14:04:02;3.60;;;2.80;;
74465;SDS011;62916;50.044;15.938;2023-07-02T14:06:33;3.20;;;2.90;;
74465;SDS011;62916;50.044;15.938;2023-07-02T14:09:05;2.80;;;2.50;;
74465;SDS011;62916;50.044;15.938;2023-07-02T14:11:38;5.60;;;2.50;;
74465;SDS011;62916;50.044;15.938;2023-07-02T14:14:11;3.90;;;2.60;;
74465;SDS011;62916;50.044;15.938;2023-07-02T14:16:42;3.70;;;2.70;;
74465;SDS011;62916;50.044;15.938;2023-07-02T14:19:13;3.70;;;2.70;;
74465;SDS011;62916;50.044;15.938;2023-07-02T14:21:45;2.80;;;2.10;;
74465;SDS011;62916;50.044;15.938;2023-07-02T14:24:16;2.50;;;2.30;;
74465;SDS011;62916;50.044;15.938;2023-07-02T14:26:47;2.50;;;2.30;;
74465;SDS011;62916;50.044;15.938;2023-07-02T14:29:18;3.10;;;2.20;;
74465;SDS011;62916;50.044;15.938;2023-07-02T14:31:49;2.40;;;2.20;;
74465;SDS011;62916;50.044;15.938;2023-07-02T14:34:20;2.70;;;2.10;;
74465;SDS011;62916;50.044;15.938;2023-07-02T14:36:51;2.40;;;2.20;;
74465;SDS011;62916;50.044;15.938;2023-07-02T14:39:22;2.30;;;2.00;;
74465;SDS011;62916;50.044;15.938;2023-07-02T14:41:53;2.60;;;2.20;;
74465;SDS011;62916;50.044;15.938;2023-07-02T14:44:24;3.00;;;2.40;;
74465;SDS011;62916;50.044;15.938;2023-07-02T14:46:55;3.20;;;2.70;;
74465;SDS011;62916;50.044;15.938;2023-07-02T14:49:26;3.00;;;2.40;;
74465;SDS011;62916;50.044;15.938;2023-07-02T14:51:57;2.50;;;2.30;;
74465;SDS011;62916;50.044;15.938;2023-07-02T14:54:28;2.60;;;2.40;;
74465;SDS011;62916;50.044;15.938;2023-07-02T14:56:59;3.50;;;2.60;;
74465;SDS011;62916;50.044;15.938;2023-07-02T14:59:30;2.50;;;2.20;;
74465;SDS011;62916;50.044;15.938;2023-07-02T15:02:03;2.20;;;2.00;;
74465;SDS011;62916;50.044;15.938;2023-07-02T15:04:34;2.20;;;2.00;;